sensor_id;sensor_type;location;lat;lon;timestamp;P1;durP1;ratioP1;P2;durP2;ratioP2
78875;SDS011;68253;52.506;5.486;2023-06-14T00:01:53;6.10;;;1.60;;
78875;SDS011;68253;52.506;5.486;2023-06-14T00:04:19;4.80;;;1.50;;
78875;SDS011;68253;52.506;5.486;2023-06-14T00:06:47;5.50;;;1.33;;
78875;SDS011;68253;52.506;5.486;2023-06-14T00:09:16;5.85;;;1.50;;
78875;SDS011;68253;52.506;5.486;2023-06-14T00:11:45;5.07;;;1.50;;
78875;SDS011;68253;52.506;5.486;2023-06-14T00:14:11;5.35;;;1.38;;
78875;SDS011;68253;52.506;5.486;2023-06-14T00:16:37;4.88;;;1.60;;
78875;SDS011;68253;52.506;5.486;2023-06-14T00:19:04;6.15;;;1.45;;
78875;SDS011;68253;52.506;5.486;2023-06-14T00:21:31;7.63;;;1.50;;
78875;SDS011;68253;52.506;5.486;2023-06-14T00:23:57;7.93;;;1.70;;
78875;SDS011;68253;52.506;5.486;2023-06-14T00:26:24;6.13;;;1.50;;
78875;SDS011;68253;52.506;5.486;2023-06-14T00:28:52;6.57;;;1.50;;
78875;SDS011;68253;52.506;5.486;2023-06-14T00:31:18;4.10;;;1.08;;
78875;SDS011;68253;52.506;5.486;2023-06-14T00:33:46;6.07;;;1.48;;
78875;SDS011;68253;52.506;5.486;2023-06-14T00:36:12;7.10;;;1.60;;
78875;SDS011;68253;52.506;5.486;2023-06-14T00:38:38;6.53;;;1.48;;
78875;SDS011;68253;52.506;5.486;2023-06-14T00:41:04;7.63;;;1.50;;
78875;SDS011;68253;52.506;5.486;2023-06-14T00:43:30;5.22;;;1.20;;
78875;SDS011;68253;52.506;5.486;2023-06-14T00:45:58;6.07;;;1.50;;
78875;SDS011;68253;52.506;5.486;2023-06-14T00:48:24;6.43;;;1.40;;
78875;SDS011;68253;52.506;5.486;2023-06-14T00:50:50;5.20;;;1.25;;
78875;SDS011;68253;52.506;5.486;2023-06-14T00:53:18;5.38;;;1.30;;
78875;SDS011;68253;52.506;5.486;2023-06-14T00:55:46;6.72;;;1.60;;
78875;SDS011;68253;52.506;5.486;2023-06-14T00:58:13;4.68;;;1.38;;
78875;SDS011;68253;52.506;5.486;2023-06-14T01:00:41;9.55;;;1.60;;
78875;SDS011;68253;52.506;5.486;2023-06-14T01:03:07;5.32;;;1.30;;
78875;SDS011;68253;52.506;5.486;2023-06-14T01:05:38;4.97;;;1.50;;
78875;SDS011;68253;52.506;5.486;2023-06-14T01:13:27;7.88;;;1.52;;
78875;SDS011;68253;52.506;5.486;2023-06-14T01:18:24;6.13;;;1.40;;
78875;SDS011;68253;52.506;5.486;2023-06-14T01:20:51;5.50;;;1.20;;
78875;SDS011;68253;52.506;5.486;2023-06-14T01:25:47;6.93;;;1.50;;
78875;SDS011;68253;52.506;5.486;2023-06-14T01:28:18;5.75;;;1.58;;
78875;SDS011;68253;52.506;5.486;2023-06-14T01:30:47;5.00;;;1.42;;
78875;SDS011;68253;52.506;5.486;2023-06-14T01:33:20;5.90;;;1.30;;
78875;SDS011;68253;52.506;5.486;2023-06-14T01:35:49;6.22;;;1.30;;
78875;SDS011;68253;52.506;5.486;2023-06-14T01:38:20;6.97;;;1.63;;
78875;SDS011;68253;52.506;5.486;2023-06-14T01:40:49;3.95;;;1.13;;
78875;SDS011;68253;52.506;5.486;2023-06-14T01:43:18;5.20;;;1.25;;
78875;SDS011;68253;52.506;5.486;2023-06-14T01:45:45;3.83;;;1.20;;
78875;SDS011;68253;52.506;5.486;2023-06-14T01:48:13;5.32;;;1.42;;
78875;SDS011;68253;52.506;5.486;2023-06-14T01:50:40;7.70;;;1.40;;
78875;SDS011;68253;52.506;5.486;2023-06-14T01:53:09;5.72;;;1.55;;
78875;SDS011;68253;52.506;5.486;2023-06-14T01:55:36;7.55;;;1.52;;
78875;SDS011;68253;52.506;5.486;2023-06-14T01:58:06;5.22;;;1.40;;
78875;SDS011;68253;52.506;5.486;2023-06-14T02:00:32;4.97;;;1.40;;
78875;SDS011;68253;52.506;5.486;2023-06-14T02:02:58;6.75;;;1.63;;
78875;SDS011;68253;52.506;5.486;2023-06-14T02:05:25;6.22;;;1.80;;
78875;SDS011;68253;52.506;5.486;2023-06-14T02:07:52;5.57;;;1.33;;
78875;SDS011;68253;52.506;5.486;2023-06-14T02:10:21;4.07;;;1.08;;
78875;SDS011;68253;52.506;5.486;2023-06-14T02:12:47;5.32;;;1.33;;
78875;SDS011;68253;52.506;5.486;2023-06-14T02:15:13;6.75;;;1.50;;
78875;SDS011;68253;52.506;5.486;2023-06-14T02:17:43;5.07;;;1.38;;
78875;SDS011;68253;52.506;5.486;2023-06-14T02:20:09;5.78;;;1.60;;
78875;SDS011;68253;52.506;5.486;2023-06-14T02:22:36;4.97;;;1.10;;
78875;SDS011;68253;52.506;5.486;2023-06-14T02:25:02;5.38;;;1.38;;
78875;SDS011;68253;52.506;5.486;2023-06-14T02:27:29;5.20;;;1.50;;
78875;SDS011;68253;52.506;5.486;2023-06-14T02:29:55;4.80;;;1.33;;
78875;SDS011;68253;52.506;5.486;2023-06-14T02:32:21;5.82;;;1.30;;
78875;SDS011;68253;52.506;5.486;2023-06-14T02:34:47;3.63;;;1.15;;
78875;SDS011;68253;52.506;5.486;2023-06-14T02:37:16;5.25;;;1.35;;
78875;SDS011;68253;52.506;5.486;2023-06-14T02:39:42;5.40;;;1.30;;
78875;SDS011;68253;52.506;5.486;2023-06-14T02:42:08;6.38;;;1.33;;
78875;SDS011;68253;52.506;5.486;2023-06-14T02:44:34;5.63;;;1.65;;
78875;SDS011;68253;52.506;5.486;2023-06-14T02:47:01;4.25;;;1.10;;
78875;SDS011;68253;52.506;5.486;2023-06-14T02:49:27;5.70;;;1.35;;
78875;SDS011;68253;52.506;5.486;2023-06-14T02:51:54;4.65;;;1.15;;
78875;SDS011;68253;52.506;5.486;2023-06-14T02:54:20;6.15;;;1.70;;
78875;SDS011;68253;52.506;5.486;2023-06-14T02:56:47;6.40;;;1.27;;
78875;SDS011;68253;52.506;5.486;2023-06-14T02:59:13;4.95;;;1.30;;
78875;SDS011;68253;52.506;5.486;2023-06-14T03:01:39;5.05;;;1.30;;
78875;SDS011;68253;52.506;5.486;2023-06-14T03:04:09;5.22;;;1.33;;
78875;SDS011;68253;52.506;5.486;2023-06-14T03:06:38;5.50;;;1.40;;
78875;SDS011;68253;52.506;5.486;2023-06-14T03:09:05;6.28;;;1.38;;
78875;SDS011;68253;52.506;5.486;2023-06-14T03:11:32;7.93;;;2.10;;
78875;SDS011;68253;52.506;5.486;2023-06-14T03:13:58;5.90;;;1.30;;
78875;SDS011;68253;52.506;5.486;2023-06-14T03:16:26;4.95;;;1.50;;
78875;SDS011;68253;52.506;5.486;2023-06-14T03:18:55;5.88;;;1.33;;
78875;SDS011;68253;52.506;5.486;2023-06-14T03:21:24;6.32;;;1.45;;
78875;SDS011;68253;52.506;5.486;2023-06-14T03:23:52;4.50;;;1.40;;
78875;SDS011;68253;52.506;5.486;2023-06-14T03:26:19;6.82;;;1.55;;
78875;SDS011;68253;52.506;5.486;2023-06-14T03:28:49;4.28;;;1.23;;
78875;SDS011;68253;52.506;5.486;2023-06-14T03:31:15;6.80;;;1.50;;
78875;SDS011;68253;52.506;5.486;2023-06-14T03:33:42;8.88;;;1.52;;
78875;SDS011;68253;52.506;5.486;2023-06-14T03:36:08;4.43;;;1.20;;
78875;SDS011;68253;52.506;5.486;2023-06-14T03:38:34;5.45;;;1.35;;
78875;SDS011;68253;52.506;5.486;2023-06-14T03:41:05;6.90;;;1.55;;
78875;SDS011;68253;52.506;5.486;2023-06-14T03:43:32;6.28;;;1.40;;
78875;SDS011;68253;52.506;5.486;2023-06-14T03:45:59;4.57;;;1.25;;
78875;SDS011;68253;52.506;5.486;2023-06-14T03:48:27;7.60;;;1.60;;
78875;SDS011;68253;52.506;5.486;2023-06-14T03:50:53;4.82;;;1.38;;
78875;SDS011;68253;52.506;5.486;2023-06-14T03:53:21;4.88;;;1.30;;
78875;SDS011;68253;52.506;5.486;2023-06-14T03:58:18;7.85;;;1.80;;
78875;SDS011;68253;52.506;5.486;2023-06-14T04:00:45;5.93;;;1.35;;
78875;SDS011;68253;52.506;5.486;2023-06-14T04:03:11;6.03;;;1.65;;
78875;SDS011;68253;52.506;5.486;2023-06-14T04:05:45;4.63;;;1.13;;
78875;SDS011;68253;52.506;5.486;2023-06-14T04:08:15;5.50;;;1.52;;
78875;SDS011;68253;52.506;5.486;2023-06-14T04:10:41;4.50;;;1.45;;
78875;SDS011;68253;52.506;5.486;2023-06-14T04:13:07;5.30;;;1.33;;
78875;SDS011;68253;52.506;5.486;2023-06-14T04:15:33;6.00;;;1.13;;
78875;SDS011;68253;52.506;5.486;2023-06-14T04:18:01;4.80;;;1.40;;
78875;SDS011;68253;52.506;5.486;2023-06-14T04:20:27;7.32;;;1.80;;
78875;SDS011;68253;52.506;5.486;2023-06-14T04:22:56;7.40;;;1.70;;
78875;SDS011;68253;52.506;5.486;2023-06-14T04:25:22;4.68;;;1.30;;
78875;SDS011;68253;52.506;5.486;2023-06-14T04:27:51;5.43;;;1.13;;
78875;SDS011;68253;52.506;5.486;2023-06-14T04:30:18;4.93;;;1.30;;
78875;SDS011;68253;52.506;5.486;2023-06-14T04:32:49;5.28;;;1.25;;
78875;SDS011;68253;52.506;5.486;2023-06-14T04:35:15;4.68;;;1.20;;
78875;SDS011;68253;52.506;5.486;2023-06-14T04:37:44;5.57;;;1.15;;
78875;SDS011;68253;52.506;5.486;2023-06-14T04:40:11;4.80;;;1.20;;
78875;SDS011;68253;52.506;5.486;2023-06-14T04:42:39;6.07;;;1.70;;
78875;SDS011;68253;52.506;5.486;2023-06-14T04:45:07;6.95;;;1.45;;
78875;SDS011;68253;52.506;5.486;2023-06-14T04:47:36;6.53;;;1.52;;
78875;SDS011;68253;52.506;5.486;2023-06-14T04:50:04;5.75;;;1.33;;
78875;SDS011;68253;52.506;5.486;2023-06-14T04:52:31;6.38;;;1.42;;
78875;SDS011;68253;52.506;5.486;2023-06-14T04:54:58;5.45;;;1.58;;
78875;SDS011;68253;52.506;5.486;2023-06-14T04:57:26;9.32;;;1.95;;
78875;SDS011;68253;52.506;5.486;2023-06-14T04:59:56;5.57;;;1.38;;
78875;SDS011;68253;52.506;5.486;2023-06-14T05:02:24;4.78;;;1.52;;
78875;SDS011;68253;52.506;5.486;2023-06-14T05:04:52;4.25;;;1.13;;
78875;SDS011;68253;52.506;5.486;2023-06-14T05:07:19;5.93;;;1.60;;
78875;SDS011;68253;52.506;5.486;2023-06-14T05:09:48;6.03;;;2.00;;
78875;SDS011;68253;52.506;5.486;2023-06-14T05:12:14;3.67;;;1.10;;
78875;SDS011;68253;52.506;5.486;2023-06-14T05:14:44;6.38;;;1.75;;
78875;SDS011;68253;52.506;5.486;2023-06-14T05:17:11;6.40;;;1.67;;
78875;SDS011;68253;52.506;5.486;2023-06-14T05:19:37;7.28;;;1.60;;
78875;SDS011;68253;52.506;5.486;2023-06-14T05:22:03;6.10;;;1.60;;
78875;SDS011;68253;52.506;5.486;2023-06-14T05:24:29;5.05;;;1.70;;
78875;SDS011;68253;52.506;5.486;2023-06-14T05:26:57;5.20;;;1.50;;
78875;SDS011;68253;52.506;5.486;2023-06-14T05:29:23;6.60;;;1.60;;
78875;SDS011;68253;52.506;5.486;2023-06-14T05:31:50;5.40;;;1.60;;
78875;SDS011;68253;52.506;5.486;2023-06-14T05:34:16;6.53;;;1.80;;
78875;SDS011;68253;52.506;5.486;2023-06-14T05:36:42;6.75;;;1.42;;
78875;SDS011;68253;52.506;5.486;2023-06-14T05:39:08;4.85;;;1.40;;
78875;SDS011;68253;52.506;5.486;2023-06-14T05:41:34;8.02;;;2.00;;
78875;SDS011;68253;52.506;5.486;2023-06-14T05:44:01;6.32;;;1.38;;
78875;SDS011;68253;52.506;5.486;2023-06-14T05:46:27;7.32;;;1.50;;
78875;SDS011;68253;52.506;5.486;2023-06-14T05:48:54;5.55;;;1.65;;
78875;SDS011;68253;52.506;5.486;2023-06-14T05:51:20;5.45;;;1.60;;
78875;SDS011;68253;52.506;5.486;2023-06-14T05:53:50;5.57;;;1.70;;
78875;SDS011;68253;52.506;5.486;2023-06-14T05:56:17;4.97;;;1.48;;
78875;SDS011;68253;52.506;5.486;2023-06-14T05:58:44;5.40;;;1.58;;
78875;SDS011;68253;52.506;5.486;2023-06-14T06:01:11;5.95;;;1.50;;
78875;SDS011;68253;52.506;5.486;2023-06-14T06:03:38;6.25;;;1.88;;
78875;SDS011;68253;52.506;5.486;2023-06-14T06:06:05;6.25;;;1.50;;
78875;SDS011;68253;52.506;5.486;2023-06-14T06:08:31;7.15;;;1.95;;
78875;SDS011;68253;52.506;5.486;2023-06-14T06:10:58;7.13;;;1.90;;
78875;SDS011;68253;52.506;5.486;2023-06-14T06:13:25;6.40;;;2.00;;
78875;SDS011;68253;52.506;5.486;2023-06-14T06:15:51;5.55;;;1.70;;
78875;SDS011;68253;52.506;5.486;2023-06-14T06:18:18;5.90;;;1.73;;
78875;SDS011;68253;52.506;5.486;2023-06-14T06:20:44;5.78;;;1.67;;
78875;SDS011;68253;52.506;5.486;2023-06-14T06:23:12;8.45;;;2.20;;
78875;SDS011;68253;52.506;5.486;2023-06-14T06:25:38;7.53;;;2.05;;
78875;SDS011;68253;52.506;5.486;2023-06-14T06:28:05;6.85;;;1.88;;
78875;SDS011;68253;52.506;5.486;2023-06-14T06:30:31;7.93;;;2.00;;
78875;SDS011;68253;52.506;5.486;2023-06-14T06:32:57;5.70;;;1.73;;
78875;SDS011;68253;52.506;5.486;2023-06-14T06:35:24;6.25;;;1.58;;
78875;SDS011;68253;52.506;5.486;2023-06-14T06:37:50;5.03;;;1.73;;
78875;SDS011;68253;52.506;5.486;2023-06-14T06:40:16;7.03;;;1.85;;
78875;SDS011;68253;52.506;5.486;2023-06-14T06:42:42;5.00;;;1.42;;
78875;SDS011;68253;52.506;5.486;2023-06-14T06:45:11;7.07;;;2.30;;
78875;SDS011;68253;52.506;5.486;2023-06-14T06:47:37;7.00;;;1.80;;
78875;SDS011;68253;52.506;5.486;2023-06-14T06:50:04;7.25;;;1.73;;
78875;SDS011;68253;52.506;5.486;2023-06-14T06:52:31;8.90;;;2.30;;
78875;SDS011;68253;52.506;5.486;2023-06-14T06:54:58;6.13;;;2.08;;
78875;SDS011;68253;52.506;5.486;2023-06-14T06:57:24;7.78;;;2.05;;
78875;SDS011;68253;52.506;5.486;2023-06-14T06:59:50;8.15;;;2.08;;
78875;SDS011;68253;52.506;5.486;2023-06-14T07:02:16;9.88;;;2.00;;
78875;SDS011;68253;52.506;5.486;2023-06-14T07:04:43;4.50;;;1.50;;
78875;SDS011;68253;52.506;5.486;2023-06-14T07:07:09;6.18;;;1.60;;
78875;SDS011;68253;52.506;5.486;2023-06-14T07:09:35;9.18;;;2.10;;
78875;SDS011;68253;52.506;5.486;2023-06-14T07:12:02;8.88;;;2.42;;
78875;SDS011;68253;52.506;5.486;2023-06-14T07:14:28;7.55;;;2.00;;
78875;SDS011;68253;52.506;5.486;2023-06-14T07:16:55;5.45;;;1.80;;
78875;SDS011;68253;52.506;5.486;2023-06-14T07:19:21;5.97;;;1.80;;
78875;SDS011;68253;52.506;5.486;2023-06-14T07:21:47;5.95;;;1.80;;
78875;SDS011;68253;52.506;5.486;2023-06-14T07:24:14;6.60;;;2.00;;
78875;SDS011;68253;52.506;5.486;2023-06-14T07:26:40;9.45;;;2.33;;
78875;SDS011;68253;52.506;5.486;2023-06-14T07:29:06;5.45;;;1.67;;
78875;SDS011;68253;52.506;5.486;2023-06-14T07:31:32;5.88;;;1.80;;
78875;SDS011;68253;52.506;5.486;2023-06-14T07:33:59;7.55;;;1.75;;
78875;SDS011;68253;52.506;5.486;2023-06-14T07:36:25;6.53;;;1.83;;
78875;SDS011;68253;52.506;5.486;2023-06-14T07:38:51;6.32;;;1.60;;
78875;SDS011;68253;52.506;5.486;2023-06-14T07:41:17;4.88;;;1.63;;
78875;SDS011;68253;52.506;5.486;2023-06-14T07:43:43;5.68;;;1.70;;
78875;SDS011;68253;52.506;5.486;2023-06-14T07:46:09;6.82;;;1.75;;
78875;SDS011;68253;52.506;5.486;2023-06-14T07:48:35;5.40;;;1.60;;
78875;SDS011;68253;52.506;5.486;2023-06-14T07:51:02;5.85;;;1.50;;
78875;SDS011;68253;52.506;5.486;2023-06-14T07:53:28;5.10;;;1.58;;
78875;SDS011;68253;52.506;5.486;2023-06-14T07:55:56;5.82;;;1.70;;
78875;SDS011;68253;52.506;5.486;2023-06-14T07:58:22;7.15;;;1.70;;
78875;SDS011;68253;52.506;5.486;2023-06-14T08:00:48;5.95;;;1.48;;
78875;SDS011;68253;52.506;5.486;2023-06-14T08:03:15;7.20;;;1.52;;
78875;SDS011;68253;52.506;5.486;2023-06-14T08:05:41;4.80;;;1.30;;
78875;SDS011;68253;52.506;5.486;2023-06-14T08:08:07;6.50;;;1.30;;
78875;SDS011;68253;52.506;5.486;2023-06-14T08:10:33;6.25;;;1.48;;
78875;SDS011;68253;52.506;5.486;2023-06-14T08:12:59;5.03;;;1.27;;
78875;SDS011;68253;52.506;5.486;2023-06-14T08:15:25;3.78;;;1.17;;
78875;SDS011;68253;52.506;5.486;2023-06-14T08:17:53;4.78;;;1.30;;
78875;SDS011;68253;52.506;5.486;2023-06-14T08:20:19;4.25;;;1.00;;
78875;SDS011;68253;52.506;5.486;2023-06-14T08:22:45;4.72;;;1.20;;
78875;SDS011;68253;52.506;5.486;2023-06-14T08:25:13;5.07;;;1.23;;
78875;SDS011;68253;52.506;5.486;2023-06-14T08:27:40;4.40;;;1.20;;
78875;SDS011;68253;52.506;5.486;2023-06-14T08:30:07;3.05;;;0.95;;
78875;SDS011;68253;52.506;5.486;2023-06-14T08:32:33;3.88;;;1.10;;
78875;SDS011;68253;52.506;5.486;2023-06-14T08:34:59;5.97;;;0.98;;
78875;SDS011;68253;52.506;5.486;2023-06-14T08:37:26;3.47;;;1.08;;
78875;SDS011;68253;52.506;5.486;2023-06-14T08:39:52;5.07;;;1.52;;
78875;SDS011;68253;52.506;5.486;2023-06-14T08:42:18;3.72;;;1.30;;
78875;SDS011;68253;52.506;5.486;2023-06-14T08:44:46;5.95;;;1.40;;
78875;SDS011;68253;52.506;5.486;2023-06-14T08:47:14;6.38;;;1.30;;
78875;SDS011;68253;52.506;5.486;2023-06-14T08:49:45;4.43;;;1.10;;
78875;SDS011;68253;52.506;5.486;2023-06-14T08:52:13;4.13;;;1.10;;
78875;SDS011;68253;52.506;5.486;2023-06-14T08:54:44;3.97;;;1.08;;
78875;SDS011;68253;52.506;5.486;2023-06-14T08:57:11;4.40;;;1.30;;
78875;SDS011;68253;52.506;5.486;2023-06-14T08:59:44;3.47;;;1.00;;
78875;SDS011;68253;52.506;5.486;2023-06-14T09:02:12;3.50;;;1.20;;
78875;SDS011;68253;52.506;5.486;2023-06-14T09:04:40;4.32;;;1.20;;
78875;SDS011;68253;52.506;5.486;2023-06-14T09:07:06;6.05;;;1.38;;
78875;SDS011;68253;52.506;5.486;2023-06-14T09:09:33;5.00;;;1.30;;
78875;SDS011;68253;52.506;5.486;2023-06-14T09:12:06;2.67;;;0.88;;
78875;SDS011;68253;52.506;5.486;2023-06-14T09:14:35;4.45;;;1.38;;
78875;SDS011;68253;52.506;5.486;2023-06-14T09:17:04;5.13;;;1.40;;
78875;SDS011;68253;52.506;5.486;2023-06-14T09:19:30;6.47;;;1.63;;
78875;SDS011;68253;52.506;5.486;2023-06-14T09:21:56;4.25;;;1.17;;
78875;SDS011;68253;52.506;5.486;2023-06-14T09:24:26;4.03;;;1.38;;
78875;SDS011;68253;52.506;5.486;2023-06-14T09:26:52;4.85;;;1.20;;
78875;SDS011;68253;52.506;5.486;2023-06-14T09:29:19;4.25;;;1.27;;
78875;SDS011;68253;52.506;5.486;2023-06-14T09:31:46;3.67;;;1.10;;
78875;SDS011;68253;52.506;5.486;2023-06-14T09:34:13;3.60;;;1.10;;
78875;SDS011;68253;52.506;5.486;2023-06-14T09:36:39;4.25;;;1.30;;
78875;SDS011;68253;52.506;5.486;2023-06-14T09:39:08;7.25;;;1.70;;
78875;SDS011;68253;52.506;5.486;2023-06-14T09:41:35;4.38;;;1.50;;
78875;SDS011;68253;52.506;5.486;2023-06-14T09:44:03;5.07;;;1.60;;
78875;SDS011;68253;52.506;5.486;2023-06-14T09:46:30;4.95;;;1.50;;
78875;SDS011;68253;52.506;5.486;2023-06-14T09:48:57;6.10;;;1.50;;
78875;SDS011;68253;52.506;5.486;2023-06-14T09:51:23;5.43;;;1.35;;
78875;SDS011;68253;52.506;5.486;2023-06-14T09:53:50;3.42;;;1.10;;
78875;SDS011;68253;52.506;5.486;2023-06-14T09:56:19;7.00;;;1.23;;
78875;SDS011;68253;52.506;5.486;2023-06-14T09:58:55;4.55;;;1.27;;
78875;SDS011;68253;52.506;5.486;2023-06-14T10:01:26;5.00;;;1.25;;
78875;SDS011;68253;52.506;5.486;2023-06-14T10:03:59;4.57;;;1.10;;
78875;SDS011;68253;52.506;5.486;2023-06-14T10:06:29;3.08;;;1.10;;
78875;SDS011;68253;52.506;5.486;2023-06-14T10:08:59;4.32;;;1.17;;
78875;SDS011;68253;52.506;5.486;2023-06-14T10:11:26;4.47;;;1.17;;
78875;SDS011;68253;52.506;5.486;2023-06-14T10:13:53;4.20;;;1.20;;
78875;SDS011;68253;52.506;5.486;2023-06-14T10:19:03;4.45;;;1.30;;
78875;SDS011;68253;52.506;5.486;2023-06-14T10:22:01;3.80;;;0.80;;
78875;SDS011;68253;52.506;5.486;2023-06-14T10:24:51;3.83;;;0.90;;
78875;SDS011;68253;52.506;5.486;2023-06-14T10:27:18;3.75;;;1.17;;
78875;SDS011;68253;52.506;5.486;2023-06-14T10:32:24;4.53;;;1.23;;
78875;SDS011;68253;52.506;5.486;2023-06-14T10:34:55;3.80;;;1.10;;
78875;SDS011;68253;52.506;5.486;2023-06-14T10:37:27;3.35;;;1.15;;
78875;SDS011;68253;52.506;5.486;2023-06-14T10:39:53;2.85;;;1.00;;
78875;SDS011;68253;52.506;5.486;2023-06-14T10:42:20;3.15;;;1.00;;
78875;SDS011;68253;52.506;5.486;2023-06-14T10:44:51;5.60;;;1.13;;
78875;SDS011;68253;52.506;5.486;2023-06-14T10:47:26;4.90;;;1.25;;
78875;SDS011;68253;52.506;5.486;2023-06-14T10:49:55;5.10;;;1.20;;
78875;SDS011;68253;52.506;5.486;2023-06-14T10:52:28;5.10;;;1.27;;
78875;SDS011;68253;52.506;5.486;2023-06-14T10:55:16;4.13;;;1.02;;
78875;SDS011;68253;52.506;5.486;2023-06-14T10:57:51;5.13;;;1.10;;
78875;SDS011;68253;52.506;5.486;2023-06-14T11:00:22;3.35;;;1.10;;
78875;SDS011;68253;52.506;5.486;2023-06-14T11:10:58;4.15;;;1.00;;
78875;SDS011;68253;52.506;5.486;2023-06-14T11:13:26;3.28;;;1.02;;
78875;SDS011;68253;52.506;5.486;2023-06-14T11:15:52;3.13;;;1.10;;
78875;SDS011;68253;52.506;5.486;2023-06-14T11:18:19;5.85;;;1.10;;
78875;SDS011;68253;52.506;5.486;2023-06-14T11:20:50;3.92;;;0.90;;
78875;SDS011;68253;52.506;5.486;2023-06-14T11:23:16;4.07;;;1.02;;
78875;SDS011;68253;52.506;5.486;2023-06-14T11:25:42;3.08;;;0.93;;
78875;SDS011;68253;52.506;5.486;2023-06-14T11:28:08;3.67;;;1.05;;
78875;SDS011;68253;52.506;5.486;2023-06-14T11:30:34;4.50;;;1.33;;
78875;SDS011;68253;52.506;5.486;2023-06-14T11:33:00;4.65;;;1.30;;
78875;SDS011;68253;52.506;5.486;2023-06-14T11:35:26;4.28;;;1.13;;
78875;SDS011;68253;52.506;5.486;2023-06-14T11:37:53;4.47;;;1.13;;
78875;SDS011;68253;52.506;5.486;2023-06-14T11:40:25;3.17;;;0.90;;
78875;SDS011;68253;52.506;5.486;2023-06-14T11:42:58;3.55;;;1.20;;
78875;SDS011;68253;52.506;5.486;2023-06-14T11:45:26;3.35;;;0.98;;
78875;SDS011;68253;52.506;5.486;2023-06-14T11:47:53;4.68;;;0.93;;
78875;SDS011;68253;52.506;5.486;2023-06-14T11:50:22;3.45;;;1.00;;
78875;SDS011;68253;52.506;5.486;2023-06-14T11:52:58;2.60;;;0.90;;
78875;SDS011;68253;52.506;5.486;2023-06-14T11:55:32;5.28;;;1.30;;
78875;SDS011;68253;52.506;5.486;2023-06-14T11:58:04;4.45;;;1.00;;
78875;SDS011;68253;52.506;5.486;2023-06-14T12:00:31;5.43;;;1.02;;
78875;SDS011;68253;52.506;5.486;2023-06-14T12:02:57;5.18;;;0.90;;
78875;SDS011;68253;52.506;5.486;2023-06-14T12:05:24;4.07;;;1.05;;
78875;SDS011;68253;52.506;5.486;2023-06-14T12:07:58;6.05;;;1.27;;
78875;SDS011;68253;52.506;5.486;2023-06-14T12:10:25;4.38;;;1.20;;
78875;SDS011;68253;52.506;5.486;2023-06-14T12:12:56;2.20;;;0.73;;
78875;SDS011;68253;52.506;5.486;2023-06-14T12:15:27;5.78;;;1.15;;
78875;SDS011;68253;52.506;5.486;2023-06-14T12:17:57;5.50;;;1.20;;
78875;SDS011;68253;52.506;5.486;2023-06-14T12:20:28;4.55;;;0.90;;
78875;SDS011;68253;52.506;5.486;2023-06-14T12:22:56;3.88;;;1.10;;
78875;SDS011;68253;52.506;5.486;2023-06-14T12:28:18;6.00;;;1.30;;
78875;SDS011;68253;52.506;5.486;2023-06-14T12:30:44;3.53;;;0.95;;
78875;SDS011;68253;52.506;5.486;2023-06-14T12:33:10;3.65;;;0.95;;
78875;SDS011;68253;52.506;5.486;2023-06-14T12:35:37;5.43;;;1.00;;
78875;SDS011;68253;52.506;5.486;2023-06-14T12:38:03;4.20;;;1.10;;
78875;SDS011;68253;52.506;5.486;2023-06-14T12:40:29;4.65;;;0.98;;
78875;SDS011;68253;52.506;5.486;2023-06-14T12:42:55;4.25;;;1.20;;
78875;SDS011;68253;52.506;5.486;2023-06-14T12:45:21;5.97;;;1.10;;
78875;SDS011;68253;52.506;5.486;2023-06-14T12:47:48;3.00;;;1.00;;
78875;SDS011;68253;52.506;5.486;2023-06-14T12:50:14;5.45;;;1.27;;
78875;SDS011;68253;52.506;5.486;2023-06-14T12:52:41;7.63;;;1.35;;
78875;SDS011;68253;52.506;5.486;2023-06-14T12:55:07;5.95;;;1.20;;
78875;SDS011;68253;52.506;5.486;2023-06-14T12:57:33;4.07;;;0.85;;
78875;SDS011;68253;52.506;5.486;2023-06-14T13:00:02;3.53;;;0.93;;
78875;SDS011;68253;52.506;5.486;2023-06-14T13:02:28;5.50;;;1.00;;
78875;SDS011;68253;52.506;5.486;2023-06-14T13:04:54;5.18;;;1.10;;
78875;SDS011;68253;52.506;5.486;2023-06-14T13:07:21;3.85;;;1.10;;
78875;SDS011;68253;52.506;5.486;2023-06-14T13:09:47;4.03;;;1.02;;
78875;SDS011;68253;52.506;5.486;2023-06-14T13:12:13;5.53;;;1.17;;
78875;SDS011;68253;52.506;5.486;2023-06-14T13:14:40;2.90;;;0.90;;
78875;SDS011;68253;52.506;5.486;2023-06-14T13:17:09;3.28;;;0.93;;
78875;SDS011;68253;52.506;5.486;2023-06-14T13:19:36;4.53;;;1.10;;
78875;SDS011;68253;52.506;5.486;2023-06-14T13:22:02;3.65;;;1.30;;
78875;SDS011;68253;52.506;5.486;2023-06-14T13:24:28;3.28;;;1.00;;
78875;SDS011;68253;52.506;5.486;2023-06-14T13:26:55;5.38;;;1.13;;
78875;SDS011;68253;52.506;5.486;2023-06-14T13:29:22;4.93;;;1.30;;
78875;SDS011;68253;52.506;5.486;2023-06-14T13:31:49;3.80;;;1.08;;
78875;SDS011;68253;52.506;5.486;2023-06-14T13:34:15;5.38;;;1.00;;
78875;SDS011;68253;52.506;5.486;2023-06-14T13:36:41;2.78;;;0.90;;
78875;SDS011;68253;52.506;5.486;2023-06-14T13:39:08;3.78;;;1.00;;
78875;SDS011;68253;52.506;5.486;2023-06-14T13:41:34;4.47;;;1.10;;
78875;SDS011;68253;52.506;5.486;2023-06-14T13:44:00;4.57;;;0.95;;
78875;SDS011;68253;52.506;5.486;2023-06-14T13:46:29;4.82;;;0.90;;
78875;SDS011;68253;52.506;5.486;2023-06-14T13:48:59;3.90;;;0.90;;
78875;SDS011;68253;52.506;5.486;2023-06-14T13:51:26;4.00;;;1.08;;
78875;SDS011;68253;52.506;5.486;2023-06-14T13:53:53;3.63;;;1.17;;
78875;SDS011;68253;52.506;5.486;2023-06-14T13:56:20;4.60;;;0.90;;
78875;SDS011;68253;52.506;5.486;2023-06-14T13:58:48;4.15;;;1.00;;
78875;SDS011;68253;52.506;5.486;2023-06-14T14:01:14;3.67;;;0.90;;
78875;SDS011;68253;52.506;5.486;2023-06-14T14:03:40;4.22;;;0.98;;
78875;SDS011;68253;52.506;5.486;2023-06-14T14:06:06;2.70;;;0.98;;
78875;SDS011;68253;52.506;5.486;2023-06-14T14:08:32;3.80;;;0.90;;
78875;SDS011;68253;52.506;5.486;2023-06-14T14:10:58;3.85;;;0.88;;
78875;SDS011;68253;52.506;5.486;2023-06-14T14:13:25;4.75;;;0.88;;
78875;SDS011;68253;52.506;5.486;2023-06-14T14:15:51;4.28;;;1.00;;
78875;SDS011;68253;52.506;5.486;2023-06-14T14:18:17;3.78;;;0.75;;
78875;SDS011;68253;52.506;5.486;2023-06-14T14:20:46;4.25;;;1.15;;
78875;SDS011;68253;52.506;5.486;2023-06-14T14:23:12;3.33;;;1.00;;
78875;SDS011;68253;52.506;5.486;2023-06-14T14:25:38;3.13;;;0.93;;
78875;SDS011;68253;52.506;5.486;2023-06-14T14:28:05;2.58;;;0.88;;
78875;SDS011;68253;52.506;5.486;2023-06-14T14:30:31;3.05;;;1.15;;
78875;SDS011;68253;52.506;5.486;2023-06-14T14:32:58;4.93;;;1.00;;
78875;SDS011;68253;52.506;5.486;2023-06-14T14:35:24;4.18;;;1.02;;
78875;SDS011;68253;52.506;5.486;2023-06-14T14:37:56;5.70;;;1.27;;
78875;SDS011;68253;52.506;5.486;2023-06-14T14:40:22;4.68;;;1.10;;
78875;SDS011;68253;52.506;5.486;2023-06-14T14:42:48;4.45;;;1.17;;
78875;SDS011;68253;52.506;5.486;2023-06-14T14:45:14;5.32;;;1.10;;
78875;SDS011;68253;52.506;5.486;2023-06-14T14:47:40;3.17;;;1.00;;
78875;SDS011;68253;52.506;5.486;2023-06-14T14:50:06;4.65;;;1.30;;
78875;SDS011;68253;52.506;5.486;2023-06-14T14:52:34;3.05;;;1.00;;
78875;SDS011;68253;52.506;5.486;2023-06-14T14:55:01;5.38;;;1.45;;
78875;SDS011;68253;52.506;5.486;2023-06-14T14:57:27;3.20;;;1.00;;
78875;SDS011;68253;52.506;5.486;2023-06-14T14:59:55;3.33;;;0.93;;
78875;SDS011;68253;52.506;5.486;2023-06-14T15:02:21;3.13;;;1.00;;
78875;SDS011;68253;52.506;5.486;2023-06-14T15:04:49;4.63;;;1.10;;
78875;SDS011;68253;52.506;5.486;2023-06-14T15:07:15;4.82;;;1.00;;
78875;SDS011;68253;52.506;5.486;2023-06-14T15:09:41;5.82;;;1.15;;
78875;SDS011;68253;52.506;5.486;2023-06-14T15:12:08;4.07;;;1.10;;
78875;SDS011;68253;52.506;5.486;2023-06-14T15:14:36;6.93;;;1.20;;
78875;SDS011;68253;52.506;5.486;2023-06-14T15:17:02;3.25;;;1.00;;
78875;SDS011;68253;52.506;5.486;2023-06-14T15:19:28;3.22;;;1.10;;